sensor_id;sensor_type;location;lat;lon;timestamp;P1;durP1;ratioP1;P2;durP2;ratioP2
56680;SDS011;42558;52.388;13.390;2022-12-07T00:02:12;25.08;;;11.78;;
56680;SDS011;42558;52.388;13.390;2022-12-07T00:04:42;24.89;;;11.40;;
56680;SDS011;42558;52.388;13.390;2022-12-07T00:07:13;23.56;;;11.59;;
56680;SDS011;42558;52.388;13.390;2022-12-07T00:09:43;24.51;;;11.21;;
56680;SDS011;42558;52.388;13.390;2022-12-07T00:12:13;21.66;;;11.21;;
56680;SDS011;42558;52.388;13.390;2022-12-07T00:14:44;22.80;;;11.02;;
56680;SDS011;42558;52.388;13.390;2022-12-07T00:17:13;24.32;;;11.59;;
56680;SDS011;42558;52.388;13.390;2022-12-07T00:19:43;21.85;;;11.78;;
56680;SDS011;42558;52.388;13.390;2022-12-07T00:22:13;27.74;;;12.54;;
56680;SDS011;42558;52.388;13.390;2022-12-07T00:24:43;23.18;;;10.26;;
56680;SDS011;42558;52.388;13.390;2022-12-07T00:27:12;22.42;;;11.97;;
56680;SDS011;42558;52.388;13.390;2022-12-07T00:29:42;23.18;;;12.16;;
56680;SDS011;42558;52.388;13.390;2022-12-07T00:32:12;23.18;;;11.40;;
56680;SDS011;42558;52.388;13.390;2022-12-07T00:34:42;19.95;;;9.31;;
56680;SDS011;42558;52.388;13.390;2022-12-07T00:37:12;19.57;;;10.64;;
56680;SDS011;42558;52.388;13.390;2022-12-07T00:39:42;22.04;;;11.21;;
56680;SDS011;42558;52.388;13.390;2022-12-07T00:42:13;20.90;;;10.64;;
56680;SDS011;42558;52.388;13.390;2022-12-07T00:44:43;18.62;;;10.26;;
56680;SDS011;42558;52.388;13.390;2022-12-07T00:47:13;19.00;;;10.45;;
56680;SDS011;42558;52.388;13.390;2022-12-07T00:49:42;22.23;;;11.40;;
56680;SDS011;42558;52.388;13.390;2022-12-07T00:52:12;19.38;;;8.74;;
56680;SDS011;42558;52.388;13.390;2022-12-07T00:54:42;19.57;;;9.88;;
56680;SDS011;42558;52.388;13.390;2022-12-07T00:57:11;18.24;;;9.12;;
56680;SDS011;42558;52.388;13.390;2022-12-07T00:59:39;19.95;;;8.93;;
56680;SDS011;42558;52.388;13.390;2022-12-07T01:02:08;19.57;;;9.12;;
56680;SDS011;42558;52.388;13.390;2022-12-07T01:04:36;16.91;;;8.93;;
56680;SDS011;42558;52.388;13.390;2022-12-07T01:07:04;15.58;;;7.41;;
56680;SDS011;42558;52.388;13.390;2022-12-07T01:09:33;19.38;;;8.74;;
56680;SDS011;42558;52.388;13.390;2022-12-07T01:12:02;15.96;;;8.36;;
56680;SDS011;42558;52.388;13.390;2022-12-07T01:14:33;18.43;;;9.69;;
56680;SDS011;42558;52.388;13.390;2022-12-07T01:17:03;15.58;;;7.98;;
56680;SDS011;42558;52.388;13.390;2022-12-07T01:19:33;17.10;;;8.55;;
56680;SDS011;42558;52.388;13.390;2022-12-07T01:22:03;14.44;;;7.79;;
56680;SDS011;42558;52.388;13.390;2022-12-07T01:24:33;15.58;;;8.55;;
56680;SDS011;42558;52.388;13.390;2022-12-07T01:27:02;17.48;;;8.74;;
56680;SDS011;42558;52.388;13.390;2022-12-07T01:29:32;15.77;;;8.74;;
56680;SDS011;42558;52.388;13.390;2022-12-07T01:32:02;15.20;;;8.74;;
56680;SDS011;42558;52.388;13.390;2022-12-07T01:34:32;14.82;;;7.60;;
56680;SDS011;42558;52.388;13.390;2022-12-07T01:37:02;14.25;;;7.03;;
56680;SDS011;42558;52.388;13.390;2022-12-07T01:39:31;15.39;;;8.74;;
56680;SDS011;42558;52.388;13.390;2022-12-07T01:41:59;16.53;;;8.93;;
56680;SDS011;42558;52.388;13.390;2022-12-07T01:44:31;16.15;;;8.36;;
56680;SDS011;42558;52.388;13.390;2022-12-07T01:47:03;15.77;;;9.12;;
56680;SDS011;42558;52.388;13.390;2022-12-07T01:49:38;17.67;;;10.07;;
56680;SDS011;42558;52.388;13.390;2022-12-07T01:52:25;17.29;;;8.36;;
56680;SDS011;42558;52.388;13.390;2022-12-07T01:55:03;15.39;;;7.79;;
56680;SDS011;42558;52.388;13.390;2022-12-07T01:57:40;16.91;;;8.36;;
56680;SDS011;42558;52.388;13.390;2022-12-07T02:00:13;16.34;;;9.12;;
56680;SDS011;42558;52.388;13.390;2022-12-07T02:02:48;16.72;;;8.55;;
56680;SDS011;42558;52.388;13.390;2022-12-07T02:05:24;16.91;;;9.69;;
56680;SDS011;42558;52.388;13.390;2022-12-07T02:07:56;14.44;;;8.17;;
56680;SDS011;42558;52.388;13.390;2022-12-07T02:10:29;17.67;;;9.31;;
56680;SDS011;42558;52.388;13.390;2022-12-07T02:13:16;15.58;;;8.36;;
56680;SDS011;42558;52.388;13.390;2022-12-07T02:16:12;15.39;;;7.22;;
56680;SDS011;42558;52.388;13.390;2022-12-07T02:31:45;13.68;;;6.84;;
56680;SDS011;42558;52.388;13.390;2022-12-07T02:37:17;16.91;;;8.55;;
56680;SDS011;42558;52.388;13.390;2022-12-07T02:40:04;13.68;;;6.46;;
56680;SDS011;42558;52.388;13.390;2022-12-07T02:42:41;12.73;;;6.46;;
56680;SDS011;42558;52.388;13.390;2022-12-07T02:45:17;13.87;;;6.84;;
56680;SDS011;42558;52.388;13.390;2022-12-07T02:47:53;14.06;;;6.65;;
56680;SDS011;42558;52.388;13.390;2022-12-07T02:50:28;13.68;;;6.65;;
56680;SDS011;42558;52.388;13.390;2022-12-07T02:52:58;14.63;;;7.60;;
56680;SDS011;42558;52.388;13.390;2022-12-07T02:55:37;13.68;;;7.41;;
56680;SDS011;42558;52.388;13.390;2022-12-07T03:01:41;12.73;;;6.27;;
56680;SDS011;42558;52.388;13.390;2022-12-07T03:16:05;17.29;;;6.84;;
56680;SDS011;42558;52.388;13.390;2022-12-07T03:18:52;13.49;;;7.22;;
56680;SDS011;42558;52.388;13.390;2022-12-07T03:21:34;15.77;;;7.98;;
56680;SDS011;42558;52.388;13.390;2022-12-07T03:24:30;17.86;;;8.74;;
56680;SDS011;42558;52.388;13.390;2022-12-07T03:27:12;14.25;;;8.17;;
56680;SDS011;42558;52.388;13.390;2022-12-07T03:30:00;15.58;;;8.36;;
56680;SDS011;42558;52.388;13.390;2022-12-07T03:32:35;14.25;;;7.41;;
56680;SDS011;42558;52.388;13.390;2022-12-07T03:35:27;15.39;;;8.55;;
56680;SDS011;42558;52.388;13.390;2022-12-07T03:38:15;15.77;;;7.22;;
56680;SDS011;42558;52.388;13.390;2022-12-07T03:43:31;20.14;;;9.31;;
56680;SDS011;42558;52.388;13.390;2022-12-07T03:46:27;17.67;;;7.98;;
56680;SDS011;42558;52.388;13.390;2022-12-07T03:49:18;19.19;;;8.93;;
56680;SDS011;42558;52.388;13.390;2022-12-07T03:52:08;20.14;;;9.50;;
56680;SDS011;42558;52.388;13.390;2022-12-07T03:55:25;23.37;;;10.26;;
56680;SDS011;42558;52.388;13.390;2022-12-07T03:58:06;19.00;;;9.69;;
56680;SDS011;42558;52.388;13.390;2022-12-07T04:00:41;21.85;;;11.02;;
56680;SDS011;42558;52.388;13.390;2022-12-07T04:03:12;19.38;;;10.07;;
56680;SDS011;42558;52.388;13.390;2022-12-07T04:05:43;23.75;;;11.97;;
56680;SDS011;42558;52.388;13.390;2022-12-07T04:08:13;20.71;;;9.50;;
56680;SDS011;42558;52.388;13.390;2022-12-07T04:10:43;19.38;;;9.50;;
56680;SDS011;42558;52.388;13.390;2022-12-07T04:13:13;25.27;;;11.78;;
56680;SDS011;42558;52.388;13.390;2022-12-07T04:15:44;26.22;;;11.97;;
56680;SDS011;42558;52.388;13.390;2022-12-07T04:18:14;23.75;;;11.21;;
56680;SDS011;42558;52.388;13.390;2022-12-07T04:20:45;23.37;;;12.16;;
56680;SDS011;42558;52.388;13.390;2022-12-07T04:23:15;23.94;;;12.92;;
56680;SDS011;42558;52.388;13.390;2022-12-07T04:25:48;28.50;;;13.11;;
56680;SDS011;42558;52.388;13.390;2022-12-07T04:28:18;28.88;;;14.82;;
56680;SDS011;42558;52.388;13.390;2022-12-07T04:30:48;32.30;;;14.82;;
56680;SDS011;42558;52.388;13.390;2022-12-07T04:33:17;26.03;;;12.16;;
56680;SDS011;42558;52.388;13.390;2022-12-07T04:35:47;30.78;;;15.39;;
56680;SDS011;42558;52.388;13.390;2022-12-07T04:38:17;30.59;;;13.87;;
56680;SDS011;42558;52.388;13.390;2022-12-07T04:40:47;29.07;;;15.01;;
56680;SDS011;42558;52.388;13.390;2022-12-07T04:43:16;35.34;;;16.34;;
56680;SDS011;42558;52.388;13.390;2022-12-07T04:45:47;37.05;;;17.10;;
56680;SDS011;42558;52.388;13.390;2022-12-07T04:48:17;35.15;;;16.91;;
56680;SDS011;42558;52.388;13.390;2022-12-07T04:50:48;26.79;;;13.68;;
56680;SDS011;42558;52.388;13.390;2022-12-07T04:53:19;32.49;;;15.39;;
56680;SDS011;42558;52.388;13.390;2022-12-07T04:55:49;33.06;;;15.77;;
56680;SDS011;42558;52.388;13.390;2022-12-07T04:58:19;29.64;;;15.58;;
56680;SDS011;42558;52.388;13.390;2022-12-07T05:00:49;32.49;;;15.77;;
56680;SDS011;42558;52.388;13.390;2022-12-07T05:03:22;32.87;;;15.96;;
56680;SDS011;42558;52.388;13.390;2022-12-07T05:05:52;30.59;;;15.58;;
56680;SDS011;42558;52.388;13.390;2022-12-07T05:08:22;32.68;;;16.15;;
56680;SDS011;42558;52.388;13.390;2022-12-07T05:10:52;34.96;;;15.77;;
56680;SDS011;42558;52.388;13.390;2022-12-07T05:13:22;34.58;;;17.48;;
56680;SDS011;42558;52.388;13.390;2022-12-07T05:15:51;38.00;;;15.96;;
56680;SDS011;42558;52.388;13.390;2022-12-07T05:18:19;35.34;;;18.43;;
56680;SDS011;42558;52.388;13.390;2022-12-07T05:20:47;31.16;;;14.63;;
56680;SDS011;42558;52.388;13.390;2022-12-07T05:23:16;31.54;;;16.34;;
56680;SDS011;42558;52.388;13.390;2022-12-07T05:25:44;32.68;;;15.77;;
56680;SDS011;42558;52.388;13.390;2022-12-07T05:28:12;31.92;;;15.77;;
56680;SDS011;42558;52.388;13.390;2022-12-07T05:30:41;31.54;;;14.82;;
56680;SDS011;42558;52.388;13.390;2022-12-07T05:33:09;35.53;;;16.53;;
56680;SDS011;42558;52.388;13.390;2022-12-07T05:35:38;38.00;;;16.53;;
56680;SDS011;42558;52.388;13.390;2022-12-07T05:38:06;31.35;;;15.77;;
56680;SDS011;42558;52.388;13.390;2022-12-07T05:40:36;37.43;;;17.10;;
56680;SDS011;42558;52.388;13.390;2022-12-07T05:43:06;37.05;;;17.48;;
56680;SDS011;42558;52.388;13.390;2022-12-07T05:45:34;34.39;;;17.10;;
56680;SDS011;42558;52.388;13.390;2022-12-07T05:48:03;35.15;;;16.15;;
56680;SDS011;42558;52.388;13.390;2022-12-07T05:50:31;38.76;;;16.53;;
56680;SDS011;42558;52.388;13.390;2022-12-07T05:53:00;36.86;;;17.67;;
56680;SDS011;42558;52.388;13.390;2022-12-07T05:55:28;37.62;;;17.86;;
56680;SDS011;42558;52.388;13.390;2022-12-07T05:57:56;40.85;;;19.19;;
56680;SDS011;42558;52.388;13.390;2022-12-07T06:00:45;33.63;;;17.10;;
56680;SDS011;42558;52.388;13.390;2022-12-07T06:03:19;41.61;;;18.62;;
56680;SDS011;42558;52.388;13.390;2022-12-07T06:05:51;42.75;;;18.43;;
56680;SDS011;42558;52.388;13.390;2022-12-07T06:08:22;38.19;;;18.62;;
56680;SDS011;42558;52.388;13.390;2022-12-07T06:10:52;37.43;;;17.86;;
56680;SDS011;42558;52.388;13.390;2022-12-07T06:13:39;36.48;;;18.43;;
56680;SDS011;42558;52.388;13.390;2022-12-07T06:16:15;47.31;;;19.76;;
56680;SDS011;42558;52.388;13.390;2022-12-07T06:18:44;39.14;;;16.72;;
56680;SDS011;42558;52.388;13.390;2022-12-07T06:21:12;38.00;;;18.43;;
56680;SDS011;42558;52.388;13.390;2022-12-07T06:23:40;40.85;;;19.19;;
56680;SDS011;42558;52.388;13.390;2022-12-07T06:26:09;38.76;;;16.72;;
56680;SDS011;42558;52.388;13.390;2022-12-07T06:28:37;43.51;;;19.38;;
56680;SDS011;42558;52.388;13.390;2022-12-07T06:31:06;46.36;;;21.85;;
56680;SDS011;42558;52.388;13.390;2022-12-07T06:33:42;43.70;;;21.09;;
56680;SDS011;42558;52.388;13.390;2022-12-07T06:36:13;44.27;;;19.76;;
56680;SDS011;42558;52.388;13.390;2022-12-07T06:38:42;40.85;;;20.14;;
56680;SDS011;42558;52.388;13.390;2022-12-07T06:41:12;45.79;;;21.66;;
56680;SDS011;42558;52.388;13.390;2022-12-07T06:43:42;45.41;;;20.33;;
56680;SDS011;42558;52.388;13.390;2022-12-07T06:46:13;42.94;;;21.66;;
56680;SDS011;42558;52.388;13.390;2022-12-07T06:48:43;44.84;;;21.47;;
56680;SDS011;42558;52.388;13.390;2022-12-07T06:51:13;40.66;;;20.33;;
56680;SDS011;42558;52.388;13.390;2022-12-07T06:53:43;43.70;;;20.14;;
56680;SDS011;42558;52.388;13.390;2022-12-07T06:56:13;38.00;;;18.62;;
56680;SDS011;42558;52.388;13.390;2022-12-07T06:58:43;40.47;;;20.14;;
56680;SDS011;42558;52.388;13.390;2022-12-07T07:01:14;37.62;;;19.00;;
56680;SDS011;42558;52.388;13.390;2022-12-07T07:03:46;42.37;;;20.90;;
56680;SDS011;42558;52.388;13.390;2022-12-07T07:06:16;45.79;;;22.04;;
56680;SDS011;42558;52.388;13.390;2022-12-07T07:08:46;35.34;;;18.05;;
56680;SDS011;42558;52.388;13.390;2022-12-07T07:11:16;46.17;;;20.71;;
56680;SDS011;42558;52.388;13.390;2022-12-07T07:13:47;41.80;;;21.09;;
56680;SDS011;42558;52.388;13.390;2022-12-07T07:16:16;45.98;;;19.57;;
56680;SDS011;42558;52.388;13.390;2022-12-07T07:18:46;44.08;;;21.09;;
56680;SDS011;42558;52.388;13.390;2022-12-07T07:21:16;44.27;;;20.71;;
56680;SDS011;42558;52.388;13.390;2022-12-07T07:23:46;44.27;;;19.57;;
56680;SDS011;42558;52.388;13.390;2022-12-07T07:26:16;46.55;;;21.09;;
56680;SDS011;42558;52.388;13.390;2022-12-07T07:28:51;42.75;;;20.71;;
56680;SDS011;42558;52.388;13.390;2022-12-07T07:31:21;38.76;;;19.95;;
56680;SDS011;42558;52.388;13.390;2022-12-07T07:33:51;41.61;;;20.14;;
56680;SDS011;42558;52.388;13.390;2022-12-07T07:36:21;39.52;;;18.62;;
56680;SDS011;42558;52.388;13.390;2022-12-07T07:38:51;38.19;;;19.57;;
56680;SDS011;42558;52.388;13.390;2022-12-07T07:41:20;39.90;;;19.57;;
56680;SDS011;42558;52.388;13.390;2022-12-07T07:43:50;39.90;;;19.76;;
56680;SDS011;42558;52.388;13.390;2022-12-07T07:46:20;38.95;;;17.29;;
56680;SDS011;42558;52.388;13.390;2022-12-07T07:48:50;41.23;;;20.33;;
56680;SDS011;42558;52.388;13.390;2022-12-07T07:51:19;37.81;;;18.62;;
56680;SDS011;42558;52.388;13.390;2022-12-07T07:53:49;33.06;;;16.91;;
56680;SDS011;42558;52.388;13.390;2022-12-07T07:56:19;37.62;;;17.67;;
56680;SDS011;42558;52.388;13.390;2022-12-07T07:58:52;35.15;;;18.05;;
56680;SDS011;42558;52.388;13.390;2022-12-07T08:01:22;32.30;;;17.29;;
56680;SDS011;42558;52.388;13.390;2022-12-07T08:03:52;39.90;;;16.72;;
56680;SDS011;42558;52.388;13.390;2022-12-07T08:06:22;29.83;;;14.06;;
56680;SDS011;42558;52.388;13.390;2022-12-07T08:08:57;37.24;;;17.48;;
56680;SDS011;42558;52.388;13.390;2022-12-07T08:11:26;33.82;;;17.10;;
56680;SDS011;42558;52.388;13.390;2022-12-07T08:13:54;35.91;;;16.53;;
56680;SDS011;42558;52.388;13.390;2022-12-07T08:16:22;35.53;;;17.29;;
56680;SDS011;42558;52.388;13.390;2022-12-07T08:18:51;29.07;;;14.25;;
56680;SDS011;42558;52.388;13.390;2022-12-07T08:21:19;31.16;;;14.82;;
56680;SDS011;42558;52.388;13.390;2022-12-07T08:23:48;29.64;;;13.30;;
56680;SDS011;42558;52.388;13.390;2022-12-07T08:26:16;29.64;;;13.68;;
56680;SDS011;42558;52.388;13.390;2022-12-07T08:28:45;29.26;;;15.20;;
56680;SDS011;42558;52.388;13.390;2022-12-07T08:31:16;26.79;;;12.73;;
56680;SDS011;42558;52.388;13.390;2022-12-07T08:33:46;24.70;;;11.97;;
56680;SDS011;42558;52.388;13.390;2022-12-07T08:36:16;19.57;;;11.40;;
56680;SDS011;42558;52.388;13.390;2022-12-07T08:38:44;19.95;;;10.26;;
56680;SDS011;42558;52.388;13.390;2022-12-07T08:41:34;18.43;;;9.31;;
56680;SDS011;42558;52.388;13.390;2022-12-07T08:44:04;19.00;;;9.31;;
56680;SDS011;42558;52.388;13.390;2022-12-07T08:46:40;18.62;;;7.41;;
56680;SDS011;42558;52.388;13.390;2022-12-07T08:49:39;14.63;;;8.36;;
56680;SDS011;42558;52.388;13.390;2022-12-07T08:52:12;18.05;;;9.50;;
56680;SDS011;42558;52.388;13.390;2022-12-07T08:54:43;21.09;;;9.12;;
56680;SDS011;42558;52.388;13.390;2022-12-07T08:57:13;16.91;;;8.93;;
56680;SDS011;42558;52.388;13.390;2022-12-07T08:59:43;14.82;;;7.41;;
56680;SDS011;42558;52.388;13.390;2022-12-07T09:02:12;11.40;;;5.89;;
56680;SDS011;42558;52.388;13.390;2022-12-07T09:04:42;8.93;;;4.56;;
56680;SDS011;42558;52.388;13.390;2022-12-07T09:07:12;11.78;;;5.89;;
56680;SDS011;42558;52.388;13.390;2022-12-07T09:09:42;8.74;;;4.75;;
56680;SDS011;42558;52.388;13.390;2022-12-07T09:12:13;10.64;;;6.08;;
56680;SDS011;42558;52.388;13.390;2022-12-07T09:14:43;8.93;;;5.32;;
56680;SDS011;42558;52.388;13.390;2022-12-07T09:17:13;10.07;;;5.13;;
56680;SDS011;42558;52.388;13.390;2022-12-07T09:19:41;7.98;;;4.56;;
56680;SDS011;42558;52.388;13.390;2022-12-07T09:22:11;7.22;;;4.18;;
56680;SDS011;42558;52.388;13.390;2022-12-07T09:24:41;7.03;;;3.61;;
56680;SDS011;42558;52.388;13.390;2022-12-07T09:27:11;8.93;;;3.80;;
56680;SDS011;42558;52.388;13.390;2022-12-07T09:29:41;8.74;;;3.99;;
56680;SDS011;42558;52.388;13.390;2022-12-07T09:32:11;9.69;;;2.85;;
56680;SDS011;42558;52.388;13.390;2022-12-07T09:34:41;7.79;;;3.61;;
56680;SDS011;42558;52.388;13.390;2022-12-07T09:37:11;6.65;;;3.42;;
56680;SDS011;42558;52.388;13.390;2022-12-07T09:39:41;10.07;;;3.42;;
56680;SDS011;42558;52.388;13.390;2022-12-07T09:42:28;7.60;;;3.80;;
56680;SDS011;42558;52.388;13.390;2022-12-07T09:45:05;8.36;;;3.61;;
56680;SDS011;42558;52.388;13.390;2022-12-07T09:47:41;7.22;;;3.61;;
56680;SDS011;42558;52.388;13.390;2022-12-07T09:50:14;10.26;;;3.80;;
56680;SDS011;42558;52.388;13.390;2022-12-07T09:52:49;7.98;;;3.42;;
56680;SDS011;42558;52.388;13.390;2022-12-07T09:55:22;8.93;;;3.99;;
56680;SDS011;42558;52.388;13.390;2022-12-07T09:57:57;11.97;;;3.42;;
56680;SDS011;42558;52.388;13.390;2022-12-07T10:00:29;7.22;;;3.42;;
56680;SDS011;42558;52.388;13.390;2022-12-07T10:03:01;6.46;;;2.85;;
56680;SDS011;42558;52.388;13.390;2022-12-07T10:05:35;7.79;;;3.04;;
56680;SDS011;42558;52.388;13.390;2022-12-07T10:08:12;9.50;;;3.23;;
56680;SDS011;42558;52.388;13.390;2022-12-07T10:10:51;7.41;;;3.23;;
56680;SDS011;42558;52.388;13.390;2022-12-07T10:16:27;7.41;;;3.61;;
56680;SDS011;42558;52.388;13.390;2022-12-07T10:19:32;7.22;;;3.04;;
56680;SDS011;42558;52.388;13.390;2022-12-07T10:22:12;8.55;;;4.18;;
56680;SDS011;42558;52.388;13.390;2022-12-07T10:24:47;7.60;;;3.42;;
56680;SDS011;42558;52.388;13.390;2022-12-07T10:27:30;7.98;;;4.37;;
56680;SDS011;42558;52.388;13.390;2022-12-07T10:30:07;8.74;;;3.42;;
56680;SDS011;42558;52.388;13.390;2022-12-07T10:32:38;5.70;;;3.04;;
56680;SDS011;42558;52.388;13.390;2022-12-07T10:35:26;6.84;;;3.04;;
56680;SDS011;42558;52.388;13.390;2022-12-07T10:37:59;6.84;;;3.23;;
56680;SDS011;42558;52.388;13.390;2022-12-07T10:40:35;10.07;;;3.23;;
56680;SDS011;42558;52.388;13.390;2022-12-07T10:55:15;8.55;;;4.18;;
56680;SDS011;42558;52.388;13.390;2022-12-07T11:00:58;9.12;;;4.37;;
56680;SDS011;42558;52.388;13.390;2022-12-07T11:06:27;8.36;;;4.75;;
56680;SDS011;42558;52.388;13.390;2022-12-07T11:18:09;11.97;;;4.75;;
56680;SDS011;42558;52.388;13.390;2022-12-07T11:20:58;8.74;;;4.75;;
56680;SDS011;42558;52.388;13.390;2022-12-07T11:29:47;12.73;;;4.75;;
56680;SDS011;42558;52.388;13.390;2022-12-07T11:32:43;10.83;;;5.13;;
56680;SDS011;42558;52.388;13.390;2022-12-07T11:35:47;8.93;;;4.94;;
56680;SDS011;42558;52.388;13.390;2022-12-07T11:38:20;9.12;;;5.13;;
56680;SDS011;42558;52.388;13.390;2022-12-07T11:41:03;10.64;;;4.37;;
56680;SDS011;42558;52.388;13.390;2022-12-07T11:47:16;9.69;;;4.94;;
56680;SDS011;42558;52.388;13.390;2022-12-07T11:53:09;9.50;;;4.75;;
56680;SDS011;42558;52.388;13.390;2022-12-07T11:58:51;7.98;;;3.61;;
56680;SDS011;42558;52.388;13.390;2022-12-07T12:04:54;10.45;;;4.56;;
56680;SDS011;42558;52.388;13.390;2022-12-07T12:07:26;10.26;;;4.94;;
56680;SDS011;42558;52.388;13.390;2022-12-07T12:10:22;7.98;;;3.99;;
56680;SDS011;42558;52.388;13.390;2022-12-07T12:20:05;8.17;;;3.61;;
56680;SDS011;42558;52.388;13.390;2022-12-07T12:22:55;8.36;;;4.75;;
56680;SDS011;42558;52.388;13.390;2022-12-07T12:28:41;8.93;;;3.42;;
56680;SDS011;42558;52.388;13.390;2022-12-07T12:33:55;12.73;;;4.56;;
56680;SDS011;42558;52.388;13.390;2022-12-07T12:39:18;12.16;;;4.37;;
56680;SDS011;42558;52.388;13.390;2022-12-07T12:47:00;11.78;;;3.80;;
56680;SDS011;42558;52.388;13.390;2022-12-07T12:50:17;9.88;;;3.42;;
56680;SDS011;42558;52.388;13.390;2022-12-07T12:52:52;8.17;;;3.80;;
56680;SDS011;42558;52.388;13.390;2022-12-07T13:04:17;11.40;;;3.61;;
56680;SDS011;42558;52.388;13.390;2022-12-07T13:06:50;7.79;;;3.99;;
56680;SDS011;42558;52.388;13.390;2022-12-07T13:09:29;9.31;;;3.80;;
56680;SDS011;42558;52.388;13.390;2022-12-07T13:12:12;8.93;;;3.61;;
56680;SDS011;42558;52.388;13.390;2022-12-07T13:20:02;9.88;;;2.85;;
56680;SDS011;42558;52.388;13.390;2022-12-07T13:25:23;9.50;;;4.56;;
56680;SDS011;42558;52.388;13.390;2022-12-07T13:28:10;8.74;;;3.42;;
56680;SDS011;42558;52.388;13.390;2022-12-07T13:31:15;10.07;;;3.80;;
56680;SDS011;42558;52.388;13.390;2022-12-07T13:33:48;11.78;;;3.80;;
56680;SDS011;42558;52.388;13.390;2022-12-07T13:36:30;10.83;;;3.61;;
56680;SDS011;42558;52.388;13.390;2022-12-07T13:41:47;9.69;;;3.42;;
56680;SDS011;42558;52.388;13.390;2022-12-07T13:44:21;11.59;;;3.42;;
56680;SDS011;42558;52.388;13.390;2022-12-07T13:49:50;9.88;;;3.61;;
56680;SDS011;42558;52.388;13.390;2022-12-07T13:52:24;10.64;;;3.61;;
56680;SDS011;42558;52.388;13.390;2022-12-07T13:54:58;7.41;;;2.85;;
56680;SDS011;42558;52.388;13.390;2022-12-07T13:57:30;10.83;;;3.04;;
56680;SDS011;42558;52.388;13.390;2022-12-07T14:00:18;6.84;;;2.85;;
56680;SDS011;42558;52.388;13.390;2022-12-07T14:03:31;10.64;;;3.23;;
56680;SDS011;42558;52.388;13.390;2022-12-07T14:09:08;11.40;;;3.23;;
56680;SDS011;42558;52.388;13.390;2022-12-07T14:11:48;11.02;;;3.61;;
56680;SDS011;42558;52.388;13.390;2022-12-07T14:14:25;11.97;;;3.42;;
56680;SDS011;42558;52.388;13.390;2022-12-07T14:17:22;10.45;;;3.80;;
56680;SDS011;42558;52.388;13.390;2022-12-07T14:19:55;10.64;;;3.23;;
56680;SDS011;42558;52.388;13.390;2022-12-07T14:22:32;9.88;;;3.80;;
56680;SDS011;42558;52.388;13.390;2022-12-07T14:25:18;8.55;;;3.61;;
56680;SDS011;42558;52.388;13.390;2022-12-07T14:27:58;11.21;;;3.61;;
56680;SDS011;42558;52.388;13.390;2022-12-07T14:30:31;11.02;;;4.37;;
56680;SDS011;42558;52.388;13.390;2022-12-07T14:33:04;7.41;;;3.61;;
56680;SDS011;42558;52.388;13.390;2022-12-07T14:35:37;7.22;;;3.42;;
56680;SDS011;42558;52.388;13.390;2022-12-07T14:38:09;10.45;;;3.04;;
56680;SDS011;42558;52.388;13.390;2022-12-07T14:40:39;12.92;;;4.56;;
56680;SDS011;42558;52.388;13.390;2022-12-07T14:43:12;8.93;;;3.61;;
56680;SDS011;42558;52.388;13.390;2022-12-07T14:45:45;9.69;;;3.61;;
56680;SDS011;42558;52.388;13.390;2022-12-07T14:48:16;7.98;;;3.99;;
56680;SDS011;42558;52.388;13.390;2022-12-07T14:51:08;8.17;;;3.61;;
56680;SDS011;42558;52.388;13.390;2022-12-07T14:54:02;9.31;;;3.80;;
56680;SDS011;42558;52.388;13.390;2022-12-07T14:56:34;10.26;;;3.80;;
56680;SDS011;42558;52.388;13.390;2022-12-07T14:59:04;9.69;;;3.80;;
56680;SDS011;42558;52.388;13.390;2022-12-07T15:01:34;10.26;;;3.42;;
56680;SDS011;42558;52.388;13.390;2022-12-07T15:04:04;12.73;;;3.42;;
56680;SDS011;42558;52.388;13.390;2022-12-07T15:06:34;8.36;;;4.37;;
56680;SDS011;42558;52.388;13.390;2022-12-07T15:09:02;7.60;;;3.04;;
56680;SDS011;42558;52.388;13.390;2022-12-07T15:11:31;9.88;;;3.61;;
56680;SDS011;42558;52.388;13.390;2022-12-07T15:13:59;9.50;;;3.42;;
56680;SDS011;42558;52.388;13.390;2022-12-07T15:16:40;10.64;;;3.80;;
56680;SDS011;42558;52.388;13.390;2022-12-07T15:19:30;11.78;;;3.61;;
56680;SDS011;42558;52.388;13.390;2022-12-07T15:21:58;8.55;;;3.61;;
56680;SDS011;42558;52.388;13.390;2022-12-07T15:24:28;11.40;;;3.99;;
56680;SDS011;42558;52.388;13.390;2022-12-07T15:26:58;12.35;;;3.42;;
56680;SDS011;42558;52.388;13.390;2022-12-07T15:29:28;11.40;;;4.18;;
56680;SDS011;42558;52.388;13.390;2022-12-07T15:31:58;9.31;;;4.18;;
56680;SDS011;42558;52.388;13.390;2022-12-07T15:34:28;8.17;;;3.04;;
56680;SDS011;42558;52.388;13.390;2022-12-07T15:37:08;10.45;;;3.23;;
56680;SDS011;42558;52.388;13.390;2022-12-07T15:39:38;9.31;;;4.56;;
56680;SDS011;42558;52.388;13.390;2022-12-07T15:42:08;9.50;;;3.04;;
56680;SDS011;42558;52.388;13.390;2022-12-07T15:44:41;12.16;;;3.99;;
56680;SDS011;42558;52.388;13.390;2022-12-07T15:50:25;10.07;;;3.61;;
56680;SDS011;42558;52.388;13.390;2022-12-07T15:52:55;12.35;;;3.61;;
56680;SDS011;42558;52.388;13.390;2022-12-07T15:55:25;11.02;;;3.42;;
56680;SDS011;42558;52.388;13.390;2022-12-07T15:57:55;10.45;;;4.18;;
56680;SDS011;42558;52.388;13.390;2022-12-07T16:00:25;8.55;;;3.04;;
56680;SDS011;42558;52.388;13.390;2022-12-07T16:02:55;13.11;;;3.80;;
56680;SDS011;42558;52.388;13.390;2022-12-07T16:05:24;11.02;;;3.80;;
56680;SDS011;42558;52.388;13.390;2022-12-07T16:07:54;7.98;;;3.61;;
56680;SDS011;42558;52.388;13.390;2022-12-07T16:10:24;8.36;;;4.37;;
56680;SDS011;42558;52.388;13.390;2022-12-07T16:12:54;10.83;;;3.99;;
56680;SDS011;42558;52.388;13.390;2022-12-07T16:15:24;10.83;;;3.42;;
56680;SDS011;42558;52.388;13.390;2022-12-07T16:17:54;14.63;;;5.51;;
56680;SDS011;42558;52.388;13.390;2022-12-07T16:20:25;9.88;;;4.56;;
56680;SDS011;42558;52.388;13.390;2022-12-07T16:22:55;12.73;;;4.18;;
56680;SDS011;42558;52.388;13.390;2022-12-07T16:25:25;11.40;;;3.99;;
56680;SDS011;42558;52.388;13.390;2022-12-07T16:27:55;12.35;;;4.37;;
56680;SDS011;42558;52.388;13.390;2022-12-07T16:30:25;12.16;;;4.18;;
56680;SDS011;42558;52.388;13.390;2022-12-07T16:32:55;8.17;;;3.23;;
56680;SDS011;42558;52.388;13.390;2022-12-07T16:35:31;9.50;;;3.99;;
56680;SDS011;42558;52.388;13.390;2022-12-07T16:38:00;15.77;;;4.94;;
56680;SDS011;42558;52.388;13.390;2022-12-07T16:40:29;10.64;;;4.18;;
56680;SDS011;42558;52.388;13.390;2022-12-07T16:42:57;11.02;;;4.37;;
56680;SDS011;42558;52.388;13.390;2022-12-07T16:45:26;14.44;;;4.56;;
56680;SDS011;42558;52.388;13.390;2022-12-07T16:47:54;11.97;;;4.37;;
56680;SDS011;42558;52.388;13.390;2022-12-07T16:50:23;7.79;;;3.23;;
56680;SDS011;42558;52.388;13.390;2022-12-07T16:52:51;10.83;;;4.18;;
56680;SDS011;42558;52.388;13.390;2022-12-07T16:55:19;8.93;;;3.80;;
56680;SDS011;42558;52.388;13.390;2022-12-07T16:57:48;10.07;;;4.37;;
56680;SDS011;42558;52.388;13.390;2022-12-07T17:00:17;10.83;;;3.99;;
56680;SDS011;42558;52.388;13.390;2022-12-07T17:02:45;11.02;;;5.32;;
56680;SDS011;42558;52.388;13.390;2022-12-07T17:05:13;17.67;;;4.18;;
56680;SDS011;42558;52.388;13.390;2022-12-07T17:07:42;10.64;;;4.18;;
56680;SDS011;42558;52.388;13.390;2022-12-07T17:10:11;10.26;;;4.37;;
56680;SDS011;42558;52.388;13.390;2022-12-07T17:12:37;7.98;;;3.61;;